Terminal Aerodrome Forecast
Issued by NWS

Home | Current Version | Previous Version | Text Only | Print | Product List | Glossary On
Versions: 1 2 3 4 5 6 7 8 9 10 11 12 13 14 15 16 17 18
000
FTAK31 PAFA 162336
TAFAQT
TAF
PAQT 162336Z 1700/1724 08013KT P6SM FEW040 SCT100
     FM170500 08010KT P6SM OVC010
     FM170900 08008KT 5SM BR OVC008
     FM171500 08008KT 2SM BR OVC001
     FM172200 07011KT 5SM BR VCSH OVC008=

USA.gov is the U.S. government's official web portal to all federal, state and local government web resources and services.